Time;durP1;ratioP1;P1;durP2;ratioP2;P2;SDS_P1;SDS_P2;PMS_P1;PMS_P2;Temp;Humidity;BMP_temperature;BMP_pressure;BME280_temperature;BME280_humidity;BME280_pressure;Samples;Min_cycle;Max_cycle;Signal;HPM_P1;HPM_P2
2021/08/15 00:00:44;;;;;;;9.82;3.10;;;;;;;20.61;58.51;101714.72;10482628;28;20048;-82
2021/08/15 00:05:45;;;;;;;3.33;3.00;;;;;;;20.57;59.25;101710.75;10480621;28;20033;-81
2021/08/15 00:10:45;;;;;;;5.07;2.92;;;;;;;19.93;58.92;101599.97;10497224;28;20086;-82
2021/08/15 00:15:46;;;;;;;5.18;2.78;;;;;;;19.76;59.43;101583.41;10461966;28;20029;-81
2021/08/15 00:20:46;;;;;;;3.95;2.63;;;;;;;20.30;59.94;101696.72;10476610;28;20481;-81
2021/08/15 00:25:47;;;;;;;2.78;2.58;;;;;;;20.08;59.95;101660.78;10476595;28;20152;-82
2021/08/15 00:30:49;;;;;;;3.08;2.88;;;;;;;19.59;59.68;101594.25;10476987;28;20040;-81
2021/08/15 00:35:49;;;;;;;9.25;3.53;;;;;;;20.11;60.19;101682.28;10494121;28;20063;-81
2021/08/15 00:40:50;;;;;;;62.50;33.97;;;;;;;20.04;59.71;101653.22;10475017;28;20047;-81
2021/08/15 00:45:51;;;;;;;2.95;2.38;;;;;;;20.06;59.63;101676.66;10461454;28;20028;-81
2021/08/15 00:50:51;;;;;;;4.15;3.33;;;;;;;20.02;59.96;101677.41;10463599;28;20040;-81
2021/08/15 00:55:53;;;;;;;4.68;4.10;;;;;;;20.06;60.07;101673.09;10476859;28;20043;-82
2021/08/15 01:00:53;;;;;;;4.60;2.92;;;;;;;19.99;59.81;101656.72;10476648;28;20032;-82
2021/08/15 01:05:54;;;;;;;6.43;2.95;;;;;;;20.18;59.65;101680.22;10492025;28;20512;-82
2021/08/15 01:10:54;;;;;;;4.32;2.92;;;;;;;20.27;59.59;101655.94;10474370;28;20033;-82
2021/08/15 01:15:55;;;;;;;9.30;3.25;;;;;;;20.09;59.80;101615.69;10474947;28;20455;-81
2021/08/15 01:21:06;;;;;;;5.57;3.30;;;;;;;20.36;59.27;101640.72;10457379;28;20049;-81
2021/08/15 01:26:14;;;;;;;7.90;3.42;;;;;;;20.37;59.55;101658.06;10477551;28;20041;-81
2021/08/15 01:31:14;;;;;;;7.25;4.15;;;;;;;20.32;59.68;101644.19;10460871;28;20028;-81
2021/08/15 01:36:16;;;;;;;7.10;2.60;;;;;;;19.78;59.60;101542.75;10441298;28;20119;-82
2021/08/15 01:41:16;;;;;;;5.13;1.83;;;;;;;20.20;60.37;101595.56;10486808;28;20041;-82
2021/08/15 01:46:18;;;;;;;5.85;3.53;;;;;;;20.22;60.16;101617.31;10450383;28;20450;-81
2021/08/15 01:51:18;;;;;;;7.18;3.63;;;;;;;20.23;60.56;101634.66;10451024;28;20075;-82
2021/08/15 01:56:19;;;;;;;9.07;3.78;;;;;;;20.14;60.24;101628.72;10452652;28;20119;-81
2021/08/15 02:01:20;;;;;;;3.65;2.65;;;;;;;19.82;60.49;101562.34;10469993;28;20121;-81
2021/08/15 02:06:21;;;;;;;4.78;3.10;;;;;;;19.48;60.41;101487.97;10453388;28;20379;-81
2021/08/15 02:11:21;;;;;;;7.03;4.15;;;;;;;19.50;60.94;101489.41;10437902;28;20120;-82
2021/08/15 02:16:22;;;;;;;11.38;4.85;;;;;;;20.21;60.71;101594.50;10471021;28;20040;-82
2021/08/15 02:21:24;;;;;;;19.55;5.90;;;;;;;20.18;60.47;101594.97;10446903;28;20084;-81
2021/08/15 02:26:24;;;;;;;5.28;3.95;;;;;;;20.09;61.07;101570.88;10445642;28;20041;-82
2021/08/15 02:31:25;;;;;;;13.15;4.30;;;;;;;20.06;61.55;101544.69;10448402;28;20060;-82
2021/08/15 02:36:25;;;;;;;10.50;3.70;;;;;;;20.17;61.95;101554.81;10413626;28;20771;-81
2021/08/15 02:41:26;;;;;;;12.35;4.28;;;;;;;20.13;61.77;101548.16;10444789;28;20190;-82
2021/08/15 02:46:26;;;;;;;5.72;3.83;;;;;;;19.95;61.96;101510.69;10446644;28;20033;-82
2021/08/15 02:51:27;;;;;;;6.20;3.92;;;;;;;20.01;61.87;101544.59;10450825;28;20116;-81
2021/08/15 02:56:28;;;;;;;9.65;4.00;;;;;;;19.81;62.07;101547.75;10433865;28;20067;-82
2021/08/15 03:01:28;;;;;;;5.32;4.55;;;;;;;19.75;62.34;101551.50;10453543;28;20073;-82
2021/08/15 03:06:28;;;;;;;8.00;4.20;;;;;;;19.89;62.96;101574.03;10456541;28;20138;-81
2021/08/15 03:11:29;;;;;;;14.70;5.63;;;;;;;19.09;63.24;101435.53;10455445;28;20414;-82
2021/08/15 03:16:29;;;;;;;12.88;4.72;;;;;;;19.91;62.90;101549.88;10436689;28;20096;-82
2021/08/15 03:21:31;;;;;;;11.38;4.43;;;;;;;19.96;63.37;101560.97;10438889;28;20053;-81
2021/08/15 03:26:32;;;;;;;6.63;4.35;;;;;;;19.34;63.07;101429.75;10456019;28;20448;-81
2021/08/15 03:31:33;;;;;;;7.50;4.25;;;;;;;20.09;62.79;101557.13;10440848;28;20045;-82
2021/08/15 03:36:33;;;;;;;10.20;3.88;;;;;;;20.14;62.83;101535.22;10458509;28;20477;-82
2021/08/15 03:41:34;;;;;;;12.95;4.50;;;;;;;19.65;63.35;101458.66;10443266;28;20477;-82
2021/08/15 03:46:34;;;;;;;6.38;4.68;;;;;;;20.00;63.38;101493.44;10460575;28;20090;-82
2021/08/15 03:51:35;;;;;;;19.90;5.57;;;;;;;19.41;63.33;101408.47;10462363;28;20044;-82
2021/08/15 03:56:36;;;;;;;8.90;5.28;;;;;;;19.63;62.92;101446.25;10428230;28;20094;-82
2021/08/15 04:01:36;;;;;;;18.40;6.15;;;;;;;20.11;63.19;101525.56;10444746;28;20460;-82
2021/08/15 04:06:38;;;;;;;11.05;5.72;;;;;;;19.95;63.49;101493.34;10444311;28;20052;-82
2021/08/15 04:11:39;;;;;;;7.53;5.70;;;;;;;19.79;63.36;101463.91;10460268;28;20408;-82
2021/08/15 04:16:39;;;;;;;19.25;5.38;;;;;;;19.96;63.13;101511.50;10443787;28;20037;-82
2021/08/15 04:21:40;;;;;;;9.73;4.80;;;;;;;19.89;63.30;101502.56;10444084;28;20053;-82
2021/08/15 04:26:43;;;;;;;7.32;4.70;;;;;;;19.77;63.01;101502.59;10460055;28;20074;-82
2021/08/15 04:31:43;;;;;;;9.43;6.00;;;;;;;19.66;63.74;101503.50;10460305;28;20065;-82
2021/08/15 04:36:44;;;;;;;9.68;5.97;;;;;;;19.63;63.90;101493.78;10443783;28;20061;-81
2021/08/15 04:41:44;;;;;;;12.13;5.25;;;;;;;19.70;64.18;101475.28;10459465;28;20039;-82
2021/08/15 04:46:44;;;;;;;7.07;5.10;;;;;;;19.72;65.00;101480.53;10458572;28;20071;-82
2021/08/15 04:51:45;;;;;;;11.90;5.28;;;;;;;19.23;64.76;101390.22;10442477;28;20143;-82
2021/08/15 04:56:45;;;;;;;13.73;5.85;;;;;;;19.74;64.71;101472.88;10459060;28;20040;-82
2021/08/15 05:01:46;;;;;;;12.60;6.43;;;;;;;19.80;65.11;101476.56;10425674;28;20045;-81
2021/08/15 05:06:46;;;;;;;25.10;6.57;;;;;;;19.59;64.90;101437.66;10458580;28;20141;-82
2021/08/15 05:11:48;;;;;;;8.52;5.22;;;;;;;19.77;65.20;101463.31;10441787;28;20114;-82
2021/08/15 05:16:50;;;;;;;12.13;6.18;;;;;;;19.99;64.67;101491.78;10452636;28;20506;-82
2021/08/15 05:21:50;;;;;;;10.85;6.45;;;;;;;20.06;64.71;101472.38;10453136;28;20064;-82
2021/08/15 05:26:51;;;;;;;11.30;7.20;;;;;;;20.12;65.05;101476.88;10439327;28;20135;-82
2021/08/15 05:31:51;;;;;;;12.15;5.63;;;;;;;20.00;65.08;101443.94;10437593;28;20110;-82
2021/08/15 05:36:52;;;;;;;12.00;4.95;;;;;;;20.11;65.39;101465.06;10435250;28;20055;-82
2021/08/15 05:41:52;;;;;;;16.58;5.47;;;;;;;20.35;64.85;101454.72;10436521;28;20032;-82
2021/08/15 05:46:53;;;;;;;11.50;6.20;;;;;;;19.84;64.84;101363.13;10418869;28;20036;-82
2021/08/15 05:51:54;;;;;;;9.35;6.18;;;;;;;20.57;64.74;101503.56;10453878;28;20033;-82
2021/08/15 05:56:54;;;;;;;19.55;6.20;;;;;;;20.54;64.02;101411.34;10437380;28;20465;-82
2021/08/15 06:01:55;;;;;;;11.50;5.32;;;;;;;20.87;63.61;101459.19;10452980;28;20151;-82
2021/08/15 06:06:56;;;;;;;10.02;6.57;;;;;;;20.81;63.52;101461.03;10454011;28;20040;-82
2021/08/15 06:11:56;;;;;;;15.73;5.72;;;;;;;20.93;63.69;101454.56;10455542;28;20055;-82
2021/08/15 06:16:57;;;;;;;25.70;7.43;;;;;;;20.63;63.40;101393.31;10453817;28;20279;-82
2021/08/15 06:22:00;;;;;;;10.38;6.68;;;;;;;21.18;63.11;101457.69;10454085;28;20532;-82
2021/08/15 06:27:04;;;;;;;16.05;7.55;;;;;;;21.43;62.87;101396.59;10437715;28;20132;-82
2021/08/15 06:32:05;;;;;;;16.30;6.00;;;;;;;23.00;59.84;101441.59;10436759;28;20056;-83
2021/08/15 06:37:06;;;;;;;7.38;5.43;;;;;;;22.72;60.06;101440.84;10398212;28;20140;-83
2021/08/15 06:42:06;;;;;;;12.93;5.00;;;;;;;22.42;59.94;101417.44;10438243;28;20570;-83
2021/08/15 06:47:07;;;;;;;17.80;6.78;;;;;;;22.82;60.00;101440.91;10436002;28;20098;-83
2021/08/15 06:52:07;;;;;;;10.88;5.43;;;;;;;25.02;56.56;101444.16;10452390;28;20557;-83
2021/08/15 06:57:08;;;;;;;10.82;5.82;;;;;;;26.04;54.50;101420.66;10451317;28;20127;-83
2021/08/15 07:02:08;;;;;;;19.85;5.47;;;;;;;27.22;52.66;101439.84;10435099;28;20404;-83
2021/08/15 07:07:09;;;;;;;11.13;6.32;;;;;;;27.47;51.68;101442.34;10451154;28;20444;-84
2021/08/15 07:12:09;;;;;;;16.00;7.40;;;;;;;27.55;51.45;101410.25;10449257;28;20468;-84
2021/08/15 07:17:10;;;;;;;12.93;6.32;;;;;;;28.16;50.23;101437.19;10450284;28;20387;-83
2021/08/15 07:22:10;;;;;;;10.93;5.65;;;;;;;27.77;50.36;101430.00;10449642;28;20582;-83
2021/08/15 07:27:11;;;;;;;12.85;6.07;;;;;;;28.21;48.15;101423.19;10432791;28;20128;-83
2021/08/15 07:32:12;;;;;;;12.55;6.63;;;;;;;28.84;47.96;101416.22;10447716;28;20503;-84
2021/08/15 07:37:13;;;;;;;9.45;5.97;;;;;;;29.56;47.45;101423.13;10451436;28;20041;-85
2021/08/15 07:42:13;;;;;;;14.40;5.82;;;;;;;29.85;46.64;101415.22;10448292;28;20033;-83
2021/08/15 07:47:14;;;;;;;6.00;5.35;;;;;;;29.74;44.34;101407.38;10451314;28;20425;-85
2021/08/15 07:52:14;;;;;;;16.42;5.28;;;;;;;30.40;45.01;101419.75;10425139;28;20033;-80
2021/08/15 07:57:16;;;;;;;9.30;4.95;;;;;;;30.58;43.63;101415.94;10456813;28;20060;-80
2021/08/15 08:02:17;;;;;;;7.82;4.95;;;;;;;30.66;43.23;101416.28;10454265;28;20128;-80
2021/08/15 08:07:22;;;;;;;11.07;6.20;;;;;;;30.73;44.19;101409.09;10454775;28;20088;-80
2021/08/15 08:12:22;;;;;;;11.02;5.20;;;;;;;31.02;43.37;101424.56;10453752;28;20040;-81
2021/08/15 08:17:23;;;;;;;6.93;5.82;;;;;;;31.39;42.36;101433.56;10454091;28;20051;-82
2021/08/15 08:22:23;;;;;;;29.90;7.75;;;;;;;31.57;43.42;101412.03;10486507;28;20165;-82
2021/08/15 08:27:24;;;;;;;14.40;5.50;;;;;;;31.96;46.62;101369.88;10495698;28;20063;-83
2021/08/15 08:32:25;;;;;;;6.72;5.30;;;;;;;31.02;42.56;101313.50;10497575;28;20036;-78
2021/08/15 08:37:25;;;;;;;6.53;4.50;;;;;;;31.30;41.97;101407.50;10477861;28;20483;-79
2021/08/15 08:42:29;;;;;;;9.65;5.43;;;;;;;31.93;41.60;101409.75;10496326;28;20091;-77
2021/08/15 08:47:30;;;;;;;10.55;3.95;;;;;;;30.92;42.61;101417.28;10496595;28;20048;-79
2021/08/15 08:52:31;;;;;;;9.73;4.93;;;;;;;31.04;41.40;101405.47;10462676;28;20101;-79
2021/08/15 08:57:31;;;;;;;7.20;4.72;;;;;;;31.32;42.47;101394.03;10477197;28;20049;-78
2021/08/15 09:02:35;;;;;;;5.47;4.95;;;;;;;31.93;42.30;101404.16;10496862;28;20037;-79
2021/08/15 09:07:40;;;;;;;12.15;5.20;;;;;;;30.56;48.14;101283.22;10494506;28;20036;-80
2021/08/15 09:12:50;;;;;;;8.77;4.95;;;;;;;31.70;47.54;101395.06;10504465;28;20041;-82
2021/08/15 09:17:50;;;;;;;7.35;4.68;;;;;;;30.74;45.19;101307.28;10536560;28;20063;-81
2021/08/15 09:22:51;;;;;;;6.68;4.18;;;;;;;31.89;42.10;101385.56;10520959;28;20091;-82
2021/08/15 09:27:54;;;;;;;6.20;4.80;;;;;;;32.18;41.37;101382.88;10519602;28;20084;-82
2021/08/15 09:33:01;;;;;;;15.10;5.20;;;;;;;31.99;44.71;101284.38;10539879;28;20101;-83
2021/08/15 09:38:05;;;;;;;6.15;3.78;;;;;;;31.52;40.94;101151.84;10505471;28;20131;-83
2021/08/15 09:43:07;;;;;;;9.90;4.45;;;;;;;32.83;45.31;101375.28;10478893;28;20044;-85
2021/08/15 09:48:18;;;;;;;3.85;3.35;;;;;;;32.39;43.86;101383.00;10478734;28;20468;-84
2021/08/15 09:53:24;;;;;;;6.38;4.47;;;;;;;32.34;42.23;101365.53;10478056;28;20368;-85
2021/08/15 09:58:24;;;;;;;3.55;2.85;;;;;;;32.76;40.85;101362.94;10476569;28;20044;-83
2021/08/15 10:03:24;;;;;;;2.65;2.45;;;;;;;32.80;39.78;101364.75;10461183;28;20072;-80
2021/08/15 10:08:25;;;;;;;3.63;3.08;;;;;;;33.48;38.98;101364.66;10459476;28;20103;-80
2021/08/15 10:13:25;;;;;;;3.88;2.72;;;;;;;33.55;38.87;101356.53;10492672;28;20045;-80
2021/08/15 10:18:27;;;;;;;3.55;2.80;;;;;;;33.37;38.40;101242.69;10494303;28;20036;-83
2021/08/15 10:23:34;;;;;;;6.15;3.67;;;;;;;34.36;37.70;101345.03;10492494;28;20107;-81
2021/08/15 10:28:39;;;;;;;2.58;1.70;;;;;;;34.10;38.71;101297.53;10534559;28;20051;-78
2021/08/15 10:33:54;;;;;;;6.07;4.10;;;;;;;33.66;37.87;101347.69;10532999;28;20126;-78
2021/08/15 10:38:56;;;;;;;3.17;2.92;;;;;;;33.69;37.64;101332.97;10533020;28;20093;-77
2021/08/15 10:43:58;;;;;;;2.65;2.10;;;;;;;33.30;37.94;101310.63;10498941;28;20023;-77
2021/08/15 10:48:59;;;;;;;4.93;3.33;;;;;;;33.43;43.53;101322.75;10514284;28;20116;-80
2021/08/15 10:53:59;;;;;;;5.35;3.17;;;;;;;33.89;36.61;101322.84;10515098;28;20035;-80
2021/08/15 10:59:00;;;;;;;2.35;2.15;;;;;;;33.84;36.95;101323.91;10513939;28;20083;-79
2021/08/15 11:04:00;;;;;;;8.80;4.20;;;;;;;33.77;35.63;101303.97;10530460;28;20131;-79
2021/08/15 11:09:05;;;;;;;3.80;3.40;;;;;;;33.02;36.36;101307.53;10494855;28;20180;-78
2021/08/15 11:14:24;;;;;;;2.72;2.38;;;;;;;33.06;35.76;101307.69;10509972;28;20036;-79
2021/08/15 11:19:26;;;;;;;6.53;3.35;;;;;;;32.97;35.01;101296.50;10529175;28;20470;-79
2021/08/15 11:24:26;;;;;;;11.32;2.25;;;;;;;33.91;34.45;101300.84;10502451;28;20039;-78
2021/08/15 11:29:27;;;;;;;1.90;1.80;;;;;;;33.27;34.42;101296.47;10518574;28;20156;-78
2021/08/15 11:34:27;;;;;;;7.85;4.03;;;;;;;32.50;33.77;101302.19;10535322;28;20128;-79
2021/08/15 11:39:31;;;;;;;6.50;2.33;;;;;;;33.13;35.10;101293.94;10535288;28;20040;-80
2021/08/15 11:44:50;;;;;;;13.00;3.45;;;;;;;32.50;37.63;101285.34;10534860;28;20047;-83
2021/08/15 11:49:50;;;;;;;3.03;2.72;;;;;;;32.31;34.47;101192.44;10512646;28;20115;-81
2021/08/15 11:54:56;;;;;;;5.68;2.75;;;;;;;32.33;36.89;101265.81;10492344;28;20035;-79
2021/08/15 12:00:04;;;;;;;4.03;2.95;;;;;;;31.66;36.01;101142.09;10491590;28;20090;-80
2021/08/15 12:05:05;;;;;;;7.60;2.92;;;;;;;32.66;35.02;101265.97;10491487;28;20459;-80
2021/08/15 12:10:25;;;;;;;2.90;2.20;;;;;;;32.57;35.76;101271.63;10473214;28;20047;-79
2021/08/15 12:15:25;;;;;;;2.88;1.63;;;;;;;32.26;36.99;101245.84;10472710;28;20028;-80
2021/08/15 12:20:25;;;;;;;5.55;2.60;;;;;;;31.93;38.97;101257.69;10491397;28;20480;-79
2021/08/15 12:25:26;;;;;;;1.92;1.83;;;;;;;32.19;40.22;101233.19;10473985;28;20045;-79
2021/08/15 12:30:30;;;;;;;4.78;3.03;;;;;;;31.73;37.96;101264.78;10491408;28;20060;-76
2021/08/15 12:35:30;;;;;;;4.53;2.25;;;;;;;31.74;38.97;101253.25;10491091;28;20059;-79
2021/08/15 12:40:31;;;;;;;3.83;1.70;;;;;;;31.34;37.81;101249.03;10473144;28;20123;-79
2021/08/15 12:45:37;;;;;;;3.85;2.55;;;;;;;31.06;41.19;101168.19;10490447;28;20353;-79
2021/08/15 12:50:39;;;;;;;2.78;2.58;;;;;;;32.05;39.23;101240.19;10473048;28;20033;-78
2021/08/15 12:55:39;;;;;;;3.63;2.63;;;;;;;32.22;39.71;101142.03;10472707;28;20366;-79
2021/08/15 13:00:44;;;;;;;8.85;2.78;;;;;;;31.90;35.93;101129.50;10472865;28;20092;-78
2021/08/15 13:05:46;;;;;;;1.80;1.70;;;;;;;31.03;39.28;101219.19;10491206;28;20043;-77
2021/08/15 13:10:46;;;;;;;15.43;2.75;;;;;;;31.03;38.78;101216.41;10491523;28;20047;-74
2021/08/15 13:15:46;;;;;;;2.53;2.13;;;;;;;30.83;39.70;101119.19;10475318;28;20121;-77
2021/08/15 13:20:47;;;;;;;3.80;3.45;;;;;;;31.24;38.56;101214.59;10495325;28;20052;-77
2021/08/15 13:25:49;;;;;;;4.45;2.58;;;;;;;31.28;40.17;101204.38;10515472;28;20044;-77
2021/08/15 13:30:50;;;;;;;3.85;2.92;;;;;;;31.18;37.66;101203.91;10536062;28;20035;-78
2021/08/15 13:35:50;;;;;;;8.88;4.72;;;;;;;31.26;36.47;101189.91;10536304;28;20047;-78
2021/08/15 13:40:51;;;;;;;14.60;3.78;;;;;;;31.41;36.49;101184.97;10535569;28;20557;-76
2021/08/15 13:45:51;;;;;;;3.00;2.80;;;;;;;31.26;36.22;101178.69;10533390;28;20079;-75
2021/08/15 13:50:51;;;;;;;4.53;2.75;;;;;;;30.86;36.34;101168.88;10517003;28;20441;-74
2021/08/15 13:55:52;;;;;;;3.95;2.33;;;;;;;31.06;37.92;101171.00;10509279;28;20129;-77
2021/08/15 14:00:52;;;;;;;8.20;3.58;;;;;;;30.85;36.66;101189.56;10489942;28;20037;-77
2021/08/15 14:05:53;;;;;;;4.90;4.05;;;;;;;30.62;40.90;101181.28;10489469;28;20061;-78
2021/08/15 14:10:53;;;;;;;10.07;7.28;;;;;;;29.19;38.06;101093.13;10470120;28;20060;-77
2021/08/15 14:15:54;;;;;;;9.73;4.15;;;;;;;28.81;38.88;101081.53;10470662;28;20109;-77
2021/08/15 14:20:54;;;;;;;4.68;4.13;;;;;;;29.94;40.48;101161.19;10454300;28;20473;-77
2021/08/15 14:25:54;;;;;;;4.47;4.10;;;;;;;30.15;39.13;101101.94;10490136;28;20364;-78
2021/08/15 14:30:55;;;;;;;8.48;4.60;;;;;;;30.86;36.70;101169.69;10491265;28;20452;-77
2021/08/15 14:35:55;;;;;;;8.68;3.95;;;;;;;30.86;38.92;101150.13;10490324;28;20040;-79
2021/08/15 14:40:57;;;;;;;4.90;4.43;;;;;;;30.80;37.45;101148.63;10472519;28;20029;-79
2021/08/15 14:45:57;;;;;;;7.07;3.47;;;;;;;30.92;35.74;101126.44;10455905;28;20456;-79
2021/08/15 14:50:58;;;;;;;4.57;4.07;;;;;;;31.18;38.66;101118.00;10473399;28;20072;-78
2021/08/15 14:55:59;;;;;;;3.38;3.17;;;;;;;31.32;34.40;101126.19;10457075;28;20120;-78
2021/08/15 15:01:00;;;;;;;3.78;2.72;;;;;;;30.95;36.86;101111.78;10474370;28;20127;-79
2021/08/15 15:06:00;;;;;;;3.53;2.42;;;;;;;30.34;36.74;101114.53;10474404;28;20040;-79
2021/08/15 15:11:00;;;;;;;5.10;3.72;;;;;;;30.21;37.00;101103.47;10492544;28;20036;-78
2021/08/15 15:16:02;;;;;;;6.53;3.42;;;;;;;30.66;36.85;101098.41;10493508;28;20040;-78
2021/08/15 15:21:03;;;;;;;7.80;4.07;;;;;;;30.49;36.16;101098.41;10474569;28;20135;-78
2021/08/15 15:26:03;;;;;;;8.52;3.70;;;;;;;30.26;36.73;101067.84;10474182;28;20032;-78
2021/08/15 15:31:04;;;;;;;5.68;3.20;;;;;;;30.08;39.38;101091.25;10473888;28;20059;-78
2021/08/15 15:36:05;;;;;;;2.95;2.58;;;;;;;29.72;36.92;101083.09;10474349;28;20044;-79
2021/08/15 15:41:05;;;;;;;5.63;2.92;;;;;;;29.44;37.81;101084.09;10474137;28;20108;-78
2021/08/15 15:46:06;;;;;;;4.38;2.95;;;;;;;29.03;37.43;101092.69;10491151;28;20055;-78
2021/08/15 15:51:07;;;;;;;7.13;3.42;;;;;;;29.02;40.51;101084.66;10473807;28;20115;-78
2021/08/15 15:56:07;;;;;;;5.43;4.32;;;;;;;28.49;39.25;101091.75;10491412;28;20538;-78
2021/08/15 16:01:07;;;;;;;10.50;3.35;;;;;;;28.10;40.49;101072.81;10490161;28;20051;-78
2021/08/15 16:06:08;;;;;;;3.60;3.15;;;;;;;27.72;42.36;101068.28;10492076;28;20044;-78
2021/08/15 16:11:08;;;;;;;7.03;4.03;;;;;;;27.60;42.92;101062.41;10497597;28;20378;-78
2021/08/15 16:16:12;;;;;;;4.07;3.67;;;;;;;27.47;40.97;101069.63;10496710;28;20055;-78
2021/08/15 16:21:12;;;;;;;13.88;3.78;;;;;;;27.39;43.13;101069.50;10478884;28;20066;-78
2021/08/15 16:26:12;;;;;;;7.47;3.35;;;;;;;26.89;43.58;101070.88;10497647;28;20039;-78
2021/08/15 16:31:14;;;;;;;6.05;3.03;;;;;;;27.07;42.90;101065.59;10474171;28;20365;-78
2021/08/15 16:36:14;;;;;;;17.67;5.90;;;;;;;26.71;44.98;101065.34;10494453;28;20510;-78
2021/08/15 16:41:15;;;;;;;9.93;4.00;;;;;;;26.58;45.37;101045.56;10492893;28;20101;-77
2021/08/15 16:46:15;;;;;;;7.50;4.25;;;;;;;25.53;46.44;100870.00;10493632;28;20051;-78
2021/08/15 16:51:16;;;;;;;4.32;3.92;;;;;;;26.06;46.56;101052.09;10474962;28;20039;-78
2021/08/15 16:56:16;;;;;;;4.20;3.28;;;;;;;26.06;47.18;101035.44;10493892;28;20039;-78
2021/08/15 17:01:17;;;;;;;6.35;4.50;;;;;;;25.96;47.78;101050.28;10493692;28;20040;-78
2021/08/15 17:06:17;;;;;;;5.40;3.67;;;;;;;26.03;48.84;101053.50;10494542;28;20068;-78
2021/08/15 17:11:18;;;;;;;8.93;3.97;;;;;;;25.67;49.73;101050.34;10477009;28;20503;-78
2021/08/15 17:16:18;;;;;;;9.88;4.13;;;;;;;25.28;47.76;100940.44;10494621;28;20056;-79
2021/08/15 17:21:19;;;;;;;6.70;4.65;;;;;;;25.78;48.72;101032.44;10495674;28;20060;-78
2021/08/15 17:26:19;;;;;;;6.15;3.42;;;;;;;25.75;48.89;101041.38;10497092;28;20045;-78
2021/08/15 17:31:20;;;;;;;7.63;3.47;;;;;;;25.64;48.79;101026.78;10458854;28;20154;-78
2021/08/15 17:36:20;;;;;;;10.90;5.22;;;;;;;25.44;47.88;101040.91;10495063;28;20035;-78
2021/08/15 17:41:21;;;;;;;10.73;4.35;;;;;;;24.72;50.61;100997.22;10475463;28;20036;-78
2021/08/15 17:46:21;;;;;;;7.07;3.88;;;;;;;24.84;49.67;101038.38;10474333;28;20055;-78
2021/08/15 17:51:21;;;;;;;6.63;3.72;;;;;;;24.56;50.80;101032.50;10475587;28;20124;-78
2021/08/15 17:56:22;;;;;;;9.77;3.80;;;;;;;24.53;50.97;101032.25;10493999;28;20063;-78
2021/08/15 18:01:22;;;;;;;4.40;3.78;;;;;;;24.39;51.61;101039.53;10492784;28;20036;-78
2021/08/15 18:06:23;;;;;;;4.90;3.65;;;;;;;24.01;52.99;101047.50;10493861;28;20395;-78
2021/08/15 18:11:23;;;;;;;6.80;4.13;;;;;;;23.80;54.12;101052.25;10492498;28;20064;-78
2021/08/15 18:16:24;;;;;;;10.38;3.05;;;;;;;23.55;55.09;101048.47;10489658;28;20067;-78
2021/08/15 18:21:24;;;;;;;10.00;3.35;;;;;;;23.29;54.86;101033.84;10491028;28;20062;-78
2021/08/15 18:26:25;;;;;;;7.75;3.33;;;;;;;22.68;57.53;101036.63;10474219;28;20036;-78
2021/08/15 18:31:25;;;;;;;2.78;2.30;;;;;;;21.55;59.22;100931.56;10473987;28;20123;-78
2021/08/15 18:36:26;;;;;;;2.50;2.30;;;;;;;22.27;58.10;101034.66;10488852;28;20123;-78
2021/08/15 18:41:27;;;;;;;5.35;3.05;;;;;;;22.00;59.58;101040.34;10488598;28;20081;-78
2021/08/15 18:46:27;;;;;;;2.63;1.95;;;;;;;21.85;59.23;101034.75;10471720;28;20397;-78
2021/08/15 18:51:28;;;;;;;5.60;1.95;;;;;;;21.75;58.58;101007.16;10490464;28;20115;-78
2021/08/15 18:56:29;;;;;;;1.77;1.65;;;;;;;21.95;57.53;101034.81;10488562;28;20064;-78
2021/08/15 19:01:30;;;;;;;5.93;1.80;;;;;;;21.78;58.06;101028.66;10489475;28;20150;-78
2021/08/15 19:06:30;;;;;;;13.52;1.98;;;;;;;21.57;58.52;101017.56;10469961;28;20028;-78
2021/08/15 19:11:31;;;;;;;10.23;2.42;;;;;;;21.06;59.07;100951.16;10472896;28;20047;-78
2021/08/15 19:16:31;;;;;;;1.90;1.80;;;;;;;21.51;59.34;101040.69;10491014;28;20392;-78
2021/08/15 19:21:32;;;;;;;5.80;3.42;;;;;;;21.01;61.23;101010.84;10490283;28;20052;-78
2021/08/15 19:26:32;;;;;;;10.60;4.78;;;;;;;20.99;60.80;101066.16;10473131;28;20089;-77
2021/08/15 19:31:34;;;;;;;8.02;3.33;;;;;;;20.78;61.04;101028.56;10489715;28;20064;-77
2021/08/15 19:36:34;;;;;;;6.90;3.67;;;;;;;20.84;60.63;101055.06;10473765;28;20047;-78
2021/08/15 19:41:35;;;;;;;15.60;3.88;;;;;;;20.81;60.75;101052.81;10493906;28;20025;-78
2021/08/15 19:46:35;;;;;;;12.82;4.57;;;;;;;20.92;60.56;101029.78;10480149;28;20052;-78
2021/08/15 19:51:36;;;;;;;18.17;4.32;;;;;;;21.22;59.95;101053.13;10481132;28;20036;-78
2021/08/15 19:56:37;;;;;;;10.45;4.63;;;;;;;21.18;59.48;101058.31;10497955;28;20115;-78
2021/08/15 20:01:37;;;;;;;18.92;4.82;;;;;;;21.05;59.43;101050.53;10499319;28;20043;-78
2021/08/15 20:06:38;;;;;;;21.27;5.25;;;;;;;21.03;59.00;101042.53;10480545;28;20078;-77
2021/08/15 20:11:38;;;;;;;15.15;4.97;;;;;;;20.63;61.32;101052.09;10497301;28;20048;-77
2021/08/15 20:16:39;;;;;;;24.45;6.55;;;;;;;20.31;61.95;101002.53;10494775;28;20040;-78
2021/08/15 20:21:39;;;;;;;14.23;6.03;;;;;;;20.51;61.40;101034.06;10476312;28;20176;-78
2021/08/15 20:26:39;;;;;;;19.75;5.18;;;;;;;20.03;59.71;100928.53;10478734;28;20036;-74
2021/08/15 20:31:40;;;;;;;17.88;7.13;;;;;;;20.61;60.42;101034.19;10494814;28;20119;-75
2021/08/15 20:36:40;;;;;;;17.65;6.85;;;;;;;20.55;61.53;101036.09;10493303;28;20056;-74
2021/08/15 20:41:41;;;;;;;20.75;6.15;;;;;;;20.40;61.56;101024.91;10493707;28;20127;-74
2021/08/15 20:46:41;;;;;;;15.82;6.95;;;;;;;19.99;63.56;100985.97;10493022;28;20174;-74
2021/08/15 20:51:42;;;;;;;28.20;6.90;;;;;;;20.14;63.56;101013.63;10473477;28;20033;-74
2021/08/15 20:56:43;;;;;;;23.73;6.82;;;;;;;20.09;63.56;101013.56;10473284;28;20115;-74
2021/08/15 21:01:43;;;;;;;14.45;6.70;;;;;;;19.44;63.97;100908.09;10495747;28;20036;-74
2021/08/15 21:06:44;;;;;;;18.90;5.60;;;;;;;20.10;63.52;101006.13;10475927;28;20124;-74
2021/08/15 21:11:46;;;;;;;25.15;6.70;;;;;;;19.64;64.19;100932.25;10492760;28;20036;-74
2021/08/15 21:16:47;;;;;;;26.70;8.60;;;;;;;19.17;64.27;100879.75;10493772;28;20094;-74
2021/08/15 21:21:47;;;;;;;35.00;8.82;;;;;;;19.98;64.76;101007.13;10476852;28;20114;-75
2021/08/15 21:26:49;;;;;;;39.72;9.68;;;;;;;20.04;64.68;101009.91;10477244;28;20045;-79
2021/08/15 21:31:50;;;;;;;36.05;8.00;;;;;;;19.66;65.49;100965.81;10496884;28;20036;-78
2021/08/15 21:36:50;;;;;;;20.38;5.75;;;;;;;19.89;65.69;100988.59;10476790;28;20100;-78
2021/08/15 21:41:51;;;;;;;31.55;8.60;;;;;;;20.00;65.32;100984.88;10494779;28;20032;-78
2021/08/15 21:46:52;;;;;;;18.63;6.63;;;;;;;19.43;64.83;100850.69;10457683;28;20043;-78
2021/08/15 21:51:52;;;;;;;28.10;7.63;;;;;;;20.31;65.11;100975.03;10494254;28;20047;-77
2021/08/15 21:56:52;;;;;;;17.90;6.75;;;;;;;20.36;65.37;100983.31;10474355;28;20496;-79
2021/08/15 22:01:53;;;;;;;26.17;7.30;;;;;;;20.40;65.20;100972.63;10491858;28;20064;-78
2021/08/15 22:06:56;;;;;;;19.95;7.38;;;;;;;20.37;64.68;100959.41;10491520;28;20131;-78
2021/08/15 22:11:57;;;;;;;25.65;6.57;;;;;;;20.31;66.00;100971.44;10474338;28;20465;-77
2021/08/15 22:17:00;;;;;;;25.27;7.22;;;;;;;20.43;64.70;100970.19;10474617;28;20064;-77
2021/08/15 22:22:00;;;;;;;32.10;8.05;;;;;;;20.07;66.05;100916.78;10492477;28;20057;-77
2021/08/15 22:27:03;;;;;;;23.85;5.78;;;;;;;20.24;65.49;100941.41;10458448;28;20111;-78
2021/08/15 22:32:05;;;;;;;24.73;6.00;;;;;;;18.87;66.69;100753.97;10458353;28;20534;-77
2021/08/15 22:37:06;;;;;;;19.40;7.05;;;;;;;20.37;66.19;100959.41;10491294;28;20507;-77
2021/08/15 22:42:06;;;;;;;19.88;6.60;;;;;;;20.51;64.49;100954.28;10473090;28;20059;-77
2021/08/15 22:47:07;;;;;;;20.90;6.72;;;;;;;20.49;64.93;100960.06;10455459;28;20105;-77
2021/08/15 22:52:07;;;;;;;31.33;7.47;;;;;;;20.53;64.03;100974.97;10471245;28;20107;-77
2021/08/15 22:57:08;;;;;;;10.43;6.00;;;;;;;20.52;64.32;100978.00;10490549;28;20451;-77